sensor_id;sensor_type;location;lat;lon;timestamp;temperature;humidity
23579;DHT22;11967;50.852;4.400;2023-10-09T00:00:53;21.00;99.90
23579;DHT22;11967;50.852;4.400;2023-10-09T00:03:27;21.10;99.90
23579;DHT22;11967;50.852;4.400;2023-10-09T00:05:53;21.10;99.90
23579;DHT22;11967;50.852;4.400;2023-10-09T00:08:20;21.10;99.90
23579;DHT22;11967;50.852;4.400;2023-10-09T00:11:12;21.00;99.90
23579;DHT22;11967;50.852;4.400;2023-10-09T00:13:44;21.00;99.90
23579;DHT22;11967;50.852;4.400;2023-10-09T00:16:24;21.00;99.90
23579;DHT22;11967;50.852;4.400;2023-10-09T00:19:02;21.00;99.90
23579;DHT22;11967;50.852;4.400;2023-10-09T00:21:43;21.00;99.90
23579;DHT22;11967;50.852;4.400;2023-10-09T00:24:09;21.00;99.90
23579;DHT22;11967;50.852;4.400;2023-10-09T00:26:55;21.00;99.90
23579;DHT22;11967;50.852;4.400;2023-10-09T00:29:27;21.00;99.90
23579;DHT22;11967;50.852;4.400;2023-10-09T00:31:54;21.00;99.90
23579;DHT22;11967;50.852;4.400;2023-10-09T00:34:29;21.00;99.90
23579;DHT22;11967;50.852;4.400;2023-10-09T00:36:54;21.00;99.90
23579;DHT22;11967;50.852;4.400;2023-10-09T00:39:23;21.00;99.90
23579;DHT22;11967;50.852;4.400;2023-10-09T00:42:11;21.00;99.90
23579;DHT22;11967;50.852;4.400;2023-10-09T00:44:54;21.00;99.90
23579;DHT22;11967;50.852;4.400;2023-10-09T00:47:21;20.90;99.90
23579;DHT22;11967;50.852;4.400;2023-10-09T00:50:03;20.80;99.90
23579;DHT22;11967;50.852;4.400;2023-10-09T00:52:37;20.70;99.90
23579;DHT22;11967;50.852;4.400;2023-10-09T00:55:05;20.60;99.90
23579;DHT22;11967;50.852;4.400;2023-10-09T00:57:46;20.70;99.90
23579;DHT22;11967;50.852;4.400;2023-10-09T01:00:22;20.70;99.90
23579;DHT22;11967;50.852;4.400;2023-10-09T01:03:00;20.60;99.90
23579;DHT22;11967;50.852;4.400;2023-10-09T01:05:49;20.50;99.90
23579;DHT22;11967;50.852;4.400;2023-10-09T01:08:23;20.40;99.90
23579;DHT22;11967;50.852;4.400;2023-10-09T01:11:11;20.30;99.90
23579;DHT22;11967;50.852;4.400;2023-10-09T01:13:44;20.30;99.90
23579;DHT22;11967;50.852;4.400;2023-10-09T01:16:10;20.30;99.90
23579;DHT22;11967;50.852;4.400;2023-10-09T01:18:46;20.30;99.90
23579;DHT22;11967;50.852;4.400;2023-10-09T01:21:16;20.30;99.90
23579;DHT22;11967;50.852;4.400;2023-10-09T01:23:44;20.20;99.90
23579;DHT22;11967;50.852;4.400;2023-10-09T01:26:34;20.20;99.90
23579;DHT22;11967;50.852;4.400;2023-10-09T01:29:14;20.20;99.90
23579;DHT22;11967;50.852;4.400;2023-10-09T01:31:46;20.20;99.90
23579;DHT22;11967;50.852;4.400;2023-10-09T01:34:25;20.20;99.90
23579;DHT22;11967;50.852;4.400;2023-10-09T01:37:09;20.20;99.90
23579;DHT22;11967;50.852;4.400;2023-10-09T01:39:48;20.20;99.90
23579;DHT22;11967;50.852;4.400;2023-10-09T01:42:14;20.10;99.90
23579;DHT22;11967;50.852;4.400;2023-10-09T01:44:55;20.20;99.90
23579;DHT22;11967;50.852;4.400;2023-10-09T01:47:23;20.20;99.90
23579;DHT22;11967;50.852;4.400;2023-10-09T01:49:51;20.10;99.90
23579;DHT22;11967;50.852;4.400;2023-10-09T01:52:19;20.10;99.90
23579;DHT22;11967;50.852;4.400;2023-10-09T01:54:51;20.10;99.90
23579;DHT22;11967;50.852;4.400;2023-10-09T01:57:19;20.10;99.90
23579;DHT22;11967;50.852;4.400;2023-10-09T01:59:49;20.10;99.90
23579;DHT22;11967;50.852;4.400;2023-10-09T02:02:19;20.20;99.90
23579;DHT22;11967;50.852;4.400;2023-10-09T02:04:45;20.20;99.90
23579;DHT22;11967;50.852;4.400;2023-10-09T02:07:11;20.10;99.90
23579;DHT22;11967;50.852;4.400;2023-10-09T02:09:39;20.10;99.90
23579;DHT22;11967;50.852;4.400;2023-10-09T02:12:11;20.10;99.90
23579;DHT22;11967;50.852;4.400;2023-10-09T02:14:37;20.10;99.90
23579;DHT22;11967;50.852;4.400;2023-10-09T02:17:07;20.10;99.90
23579;DHT22;11967;50.852;4.400;2023-10-09T02:19:44;20.10;99.90
23579;DHT22;11967;50.852;4.400;2023-10-09T02:22:15;20.10;99.90
23579;DHT22;11967;50.852;4.400;2023-10-09T02:24:43;20.00;99.90
23579;DHT22;11967;50.852;4.400;2023-10-09T02:27:19;20.00;99.90
23579;DHT22;11967;50.852;4.400;2023-10-09T02:30:04;20.00;99.90
23579;DHT22;11967;50.852;4.400;2023-10-09T02:32:53;20.00;99.90
23579;DHT22;11967;50.852;4.400;2023-10-09T02:35:24;20.00;99.90
23579;DHT22;11967;50.852;4.400;2023-10-09T02:38:04;20.00;99.90
23579;DHT22;11967;50.852;4.400;2023-10-09T02:40:33;19.90;99.90
23579;DHT22;11967;50.852;4.400;2023-10-09T02:43:06;19.90;99.90
23579;DHT22;11967;50.852;4.400;2023-10-09T02:45:32;19.90;99.90
23579;DHT22;11967;50.852;4.400;2023-10-09T02:48:04;19.90;99.90
23579;DHT22;11967;50.852;4.400;2023-10-09T02:50:36;19.90;99.90
23579;DHT22;11967;50.852;4.400;2023-10-09T02:53:03;19.90;99.90
23579;DHT22;11967;50.852;4.400;2023-10-09T02:55:35;19.90;99.90
23579;DHT22;11967;50.852;4.400;2023-10-09T02:58:04;20.00;99.90
23579;DHT22;11967;50.852;4.400;2023-10-09T03:00:37;20.00;99.90
23579;DHT22;11967;50.852;4.400;2023-10-09T03:03:05;19.90;99.90
23579;DHT22;11967;50.852;4.400;2023-10-09T03:05:33;19.90;99.90
23579;DHT22;11967;50.852;4.400;2023-10-09T03:07:58;19.90;99.90
23579;DHT22;11967;50.852;4.400;2023-10-09T03:10:24;19.80;99.90
23579;DHT22;11967;50.852;4.400;2023-10-09T03:12:51;19.80;99.90
23579;DHT22;11967;50.852;4.400;2023-10-09T03:15:22;19.80;99.90
23579;DHT22;11967;50.852;4.400;2023-10-09T03:17:48;19.70;99.90
23579;DHT22;11967;50.852;4.400;2023-10-09T03:20:15;19.70;99.90
23579;DHT22;11967;50.852;4.400;2023-10-09T03:22:43;19.70;99.90
23579;DHT22;11967;50.852;4.400;2023-10-09T03:25:10;19.60;99.90
23579;DHT22;11967;50.852;4.400;2023-10-09T03:27:42;19.60;99.90
23579;DHT22;11967;50.852;4.400;2023-10-09T03:30:15;19.60;99.90
23579;DHT22;11967;50.852;4.400;2023-10-09T03:33:39;19.70;99.90
23579;DHT22;11967;50.852;4.400;2023-10-09T03:36:05;19.70;99.90
23579;DHT22;11967;50.852;4.400;2023-10-09T03:38:35;19.80;99.90
23579;DHT22;11967;50.852;4.400;2023-10-09T03:41:02;19.80;99.90
23579;DHT22;11967;50.852;4.400;2023-10-09T03:43:32;19.70;99.90
23579;DHT22;11967;50.852;4.400;2023-10-09T03:46:00;19.70;99.90
23579;DHT22;11967;50.852;4.400;2023-10-09T03:48:28;19.70;99.90
23579;DHT22;11967;50.852;4.400;2023-10-09T03:50:58;19.70;99.90
23579;DHT22;11967;50.852;4.400;2023-10-09T03:53:50;19.70;99.90
23579;DHT22;11967;50.852;4.400;2023-10-09T03:56:16;19.60;99.90
23579;DHT22;11967;50.852;4.400;2023-10-09T03:58:45;19.70;99.90
23579;DHT22;11967;50.852;4.400;2023-10-09T04:01:19;19.70;99.90
23579;DHT22;11967;50.852;4.400;2023-10-09T04:03:57;19.70;99.90
23579;DHT22;11967;50.852;4.400;2023-10-09T04:06:30;19.70;99.90
23579;DHT22;11967;50.852;4.400;2023-10-09T04:08:58;19.70;99.90
23579;DHT22;11967;50.852;4.400;2023-10-09T04:11:27;19.70;99.90
23579;DHT22;11967;50.852;4.400;2023-10-09T04:13:53;19.70;99.90
23579;DHT22;11967;50.852;4.400;2023-10-09T04:16:19;19.60;99.90
23579;DHT22;11967;50.852;4.400;2023-10-09T04:18:58;19.60;99.90
23579;DHT22;11967;50.852;4.400;2023-10-09T04:21:25;19.50;99.90
23579;DHT22;11967;50.852;4.400;2023-10-09T04:24:03;19.40;99.90
23579;DHT22;11967;50.852;4.400;2023-10-09T04:26:44;19.50;99.90
23579;DHT22;11967;50.852;4.400;2023-10-09T04:29:13;19.50;99.90
23579;DHT22;11967;50.852;4.400;2023-10-09T04:32:04;19.50;99.90
23579;DHT22;11967;50.852;4.400;2023-10-09T04:34:33;19.50;99.90
23579;DHT22;11967;50.852;4.400;2023-10-09T04:37:10;19.60;99.90
23579;DHT22;11967;50.852;4.400;2023-10-09T04:39:54;19.50;99.90
23579;DHT22;11967;50.852;4.400;2023-10-09T04:42:48;19.60;99.90
23579;DHT22;11967;50.852;4.400;2023-10-09T04:45:24;19.60;99.90
23579;DHT22;11967;50.852;4.400;2023-10-09T04:48:08;19.60;99.90
23579;DHT22;11967;50.852;4.400;2023-10-09T04:50:35;19.50;99.90
23579;DHT22;11967;50.852;4.400;2023-10-09T04:53:01;19.50;99.90
23579;DHT22;11967;50.852;4.400;2023-10-09T04:55:47;19.50;99.90
23579;DHT22;11967;50.852;4.400;2023-10-09T04:58:24;19.40;99.90
23579;DHT22;11967;50.852;4.400;2023-10-09T05:00:54;19.50;99.90
23579;DHT22;11967;50.852;4.400;2023-10-09T05:03:25;19.50;99.90
23579;DHT22;11967;50.852;4.400;2023-10-09T05:05:54;19.40;99.90
23579;DHT22;11967;50.852;4.400;2023-10-09T05:08:45;19.40;99.90
23579;DHT22;11967;50.852;4.400;2023-10-09T05:11:11;19.40;99.90
23579;DHT22;11967;50.852;4.400;2023-10-09T05:13:55;19.40;99.90
23579;DHT22;11967;50.852;4.400;2023-10-09T05:16:37;19.30;99.90
23579;DHT22;11967;50.852;4.400;2023-10-09T05:19:09;19.20;99.90
23579;DHT22;11967;50.852;4.400;2023-10-09T05:21:55;19.30;99.90
23579;DHT22;11967;50.852;4.400;2023-10-09T05:24:24;19.30;99.90
23579;DHT22;11967;50.852;4.400;2023-10-09T05:26:52;19.30;99.90
23579;DHT22;11967;50.852;4.400;2023-10-09T05:29:25;19.40;99.90
23579;DHT22;11967;50.852;4.400;2023-10-09T05:32:13;19.40;99.90
23579;DHT22;11967;50.852;4.400;2023-10-09T05:34:40;19.30;99.90
23579;DHT22;11967;50.852;4.400;2023-10-09T05:37:28;19.30;99.90
23579;DHT22;11967;50.852;4.400;2023-10-09T05:40:09;19.40;99.90
23579;DHT22;11967;50.852;4.400;2023-10-09T05:42:45;19.40;99.90
23579;DHT22;11967;50.852;4.400;2023-10-09T05:45:13;19.30;99.90
23579;DHT22;11967;50.852;4.400;2023-10-09T05:47:58;19.40;99.90
23579;DHT22;11967;50.852;4.400;2023-10-09T05:50:30;19.30;99.90
23579;DHT22;11967;50.852;4.400;2023-10-09T05:52:58;19.20;99.90
23579;DHT22;11967;50.852;4.400;2023-10-09T05:55:28;19.20;99.90
23579;DHT22;11967;50.852;4.400;2023-10-09T05:58:12;19.10;99.90
23579;DHT22;11967;50.852;4.400;2023-10-09T06:00:56;19.10;99.90
23579;DHT22;11967;50.852;4.400;2023-10-09T06:03:40;19.10;99.90
23579;DHT22;11967;50.852;4.400;2023-10-09T06:06:17;19.00;99.90
23579;DHT22;11967;50.852;4.400;2023-10-09T06:09:05;19.00;99.90
23579;DHT22;11967;50.852;4.400;2023-10-09T06:11:41;19.00;99.90
23579;DHT22;11967;50.852;4.400;2023-10-09T06:14:16;19.00;99.90
23579;DHT22;11967;50.852;4.400;2023-10-09T06:16:52;19.00;99.90
23579;DHT22;11967;50.852;4.400;2023-10-09T06:19:47;19.00;99.90
23579;DHT22;11967;50.852;4.400;2023-10-09T06:22:15;19.10;99.90
23579;DHT22;11967;50.852;4.400;2023-10-09T06:24:59;19.00;99.90
23579;DHT22;11967;50.852;4.400;2023-10-09T06:27:34;19.00;99.90
23579;DHT22;11967;50.852;4.400;2023-10-09T06:30:00;18.90;99.90
23579;DHT22;11967;50.852;4.400;2023-10-09T06:32:44;18.90;99.90
23579;DHT22;11967;50.852;4.400;2023-10-09T06:35:17;19.00;99.90
23579;DHT22;11967;50.852;4.400;2023-10-09T06:37:49;19.00;99.90
23579;DHT22;11967;50.852;4.400;2023-10-09T06:43:02;19.00;99.90
23579;DHT22;11967;50.852;4.400;2023-10-09T06:45:55;19.00;99.90
23579;DHT22;11967;50.852;4.400;2023-10-09T06:48:24;19.00;99.90
23579;DHT22;11967;50.852;4.400;2023-10-09T06:51:03;19.00;99.90
23579;DHT22;11967;50.852;4.400;2023-10-09T06:53:33;19.10;99.90
23579;DHT22;11967;50.852;4.400;2023-10-09T06:56:17;19.00;99.90
23579;DHT22;11967;50.852;4.400;2023-10-09T06:58:50;19.10;99.90
23579;DHT22;11967;50.852;4.400;2023-10-09T07:01:26;19.10;99.90
23579;DHT22;11967;50.852;4.400;2023-10-09T07:04:08;19.00;99.90
23579;DHT22;11967;50.852;4.400;2023-10-09T07:06:53;19.10;99.90
23579;DHT22;11967;50.852;4.400;2023-10-09T07:09:22;19.10;99.90
23579;DHT22;11967;50.852;4.400;2023-10-09T07:11:52;19.10;99.90
23579;DHT22;11967;50.852;4.400;2023-10-09T07:14:22;19.20;99.90
23579;DHT22;11967;50.852;4.400;2023-10-09T07:19:27;19.20;99.90
23579;DHT22;11967;50.852;4.400;2023-10-09T07:22:00;19.20;99.90
23579;DHT22;11967;50.852;4.400;2023-10-09T07:24:32;19.10;99.90
23579;DHT22;11967;50.852;4.400;2023-10-09T07:27:12;19.00;99.90
23579;DHT22;11967;50.852;4.400;2023-10-09T07:29:40;19.00;99.90
23579;DHT22;11967;50.852;4.400;2023-10-09T07:32:15;19.00;99.90
23579;DHT22;11967;50.852;4.400;2023-10-09T07:34:48;19.00;99.90
23579;DHT22;11967;50.852;4.400;2023-10-09T07:37:28;19.10;99.90
23579;DHT22;11967;50.852;4.400;2023-10-09T07:40:02;19.10;99.90
23579;DHT22;11967;50.852;4.400;2023-10-09T07:42:32;19.10;99.90
23579;DHT22;11967;50.852;4.400;2023-10-09T07:45:12;19.10;99.90
23579;DHT22;11967;50.852;4.400;2023-10-09T07:47:59;19.10;99.90
23579;DHT22;11967;50.852;4.400;2023-10-09T07:50:25;19.10;99.90
23579;DHT22;11967;50.852;4.400;2023-10-09T07:52:57;19.10;99.90
23579;DHT22;11967;50.852;4.400;2023-10-09T07:55:40;19.20;99.90
23579;DHT22;11967;50.852;4.400;2023-10-09T07:58:11;19.30;99.90
23579;DHT22;11967;50.852;4.400;2023-10-09T08:00:38;19.30;99.90
23579;DHT22;11967;50.852;4.400;2023-10-09T08:03:24;19.40;99.90
23579;DHT22;11967;50.852;4.400;2023-10-09T08:05:51;19.40;99.90
23579;DHT22;11967;50.852;4.400;2023-10-09T08:08:18;19.40;99.90
23579;DHT22;11967;50.852;4.400;2023-10-09T08:10:59;19.40;99.90
23579;DHT22;11967;50.852;4.400;2023-10-09T08:13:43;19.50;99.90
23579;DHT22;11967;50.852;4.400;2023-10-09T08:16:14;19.50;99.90
23579;DHT22;11967;50.852;4.400;2023-10-09T08:18:47;19.50;99.90
23579;DHT22;11967;50.852;4.400;2023-10-09T08:21:17;19.50;99.90
23579;DHT22;11967;50.852;4.400;2023-10-09T08:23:43;19.50;99.90
23579;DHT22;11967;50.852;4.400;2023-10-09T08:26:16;19.50;99.90
23579;DHT22;11967;50.852;4.400;2023-10-09T08:28:55;19.40;99.90
23579;DHT22;11967;50.852;4.400;2023-10-09T08:31:42;19.30;99.90
23579;DHT22;11967;50.852;4.400;2023-10-09T08:34:22;19.40;99.90
23579;DHT22;11967;50.852;4.400;2023-10-09T08:36:51;19.50;99.90
23579;DHT22;11967;50.852;4.400;2023-10-09T08:39:21;19.50;99.90
23579;DHT22;11967;50.852;4.400;2023-10-09T08:41:55;19.50;99.90
23579;DHT22;11967;50.852;4.400;2023-10-09T08:44:27;19.50;99.90
23579;DHT22;11967;50.852;4.400;2023-10-09T08:46:59;19.50;99.90
23579;DHT22;11967;50.852;4.400;2023-10-09T08:49:26;19.50;99.90
23579;DHT22;11967;50.852;4.400;2023-10-09T08:51:53;19.50;99.90
23579;DHT22;11967;50.852;4.400;2023-10-09T08:54:19;19.50;99.90
23579;DHT22;11967;50.852;4.400;2023-10-09T08:56:48;19.50;99.90
23579;DHT22;11967;50.852;4.400;2023-10-09T08:59:18;19.60;99.90
23579;DHT22;11967;50.852;4.400;2023-10-09T09:01:49;19.60;99.90
23579;DHT22;11967;50.852;4.400;2023-10-09T09:04:34;19.60;99.90
23579;DHT22;11967;50.852;4.400;2023-10-09T09:07:02;19.60;99.90
23579;DHT22;11967;50.852;4.400;2023-10-09T09:09:27;19.60;99.90
23579;DHT22;11967;50.852;4.400;2023-10-09T09:11:56;19.70;99.90
23579;DHT22;11967;50.852;4.400;2023-10-09T09:14:38;19.80;99.90
23579;DHT22;11967;50.852;4.400;2023-10-09T09:17:07;19.80;99.90
23579;DHT22;11967;50.852;4.400;2023-10-09T09:19:36;19.80;99.90
23579;DHT22;11967;50.852;4.400;2023-10-09T09:22:04;19.80;99.90
23579;DHT22;11967;50.852;4.400;2023-10-09T09:24:40;19.80;99.90
23579;DHT22;11967;50.852;4.400;2023-10-09T09:27:12;19.80;99.90
23579;DHT22;11967;50.852;4.400;2023-10-09T09:29:56;19.90;99.90
23579;DHT22;11967;50.852;4.400;2023-10-09T09:32:30;20.00;99.90
23579;DHT22;11967;50.852;4.400;2023-10-09T09:35:16;20.00;99.90
23579;DHT22;11967;50.852;4.400;2023-10-09T09:37:52;20.10;99.90
23579;DHT22;11967;50.852;4.400;2023-10-09T09:40:20;20.00;99.90
23579;DHT22;11967;50.852;4.400;2023-10-09T09:43:00;20.00;99.90
23579;DHT22;11967;50.852;4.400;2023-10-09T09:45:46;20.00;99.90
23579;DHT22;11967;50.852;4.400;2023-10-09T09:48:14;20.00;99.90
23579;DHT22;11967;50.852;4.400;2023-10-09T09:50:42;20.10;99.90
23579;DHT22;11967;50.852;4.400;2023-10-09T09:53:15;20.20;99.90
23579;DHT22;11967;50.852;4.400;2023-10-09T09:55:52;20.20;99.90
23579;DHT22;11967;50.852;4.400;2023-10-09T09:58:21;20.20;99.90
23579;DHT22;11967;50.852;4.400;2023-10-09T10:01:03;20.20;99.90
23579;DHT22;11967;50.852;4.400;2023-10-09T10:03:48;20.20;99.90
23579;DHT22;11967;50.852;4.400;2023-10-09T10:06:20;20.20;99.90
23579;DHT22;11967;50.852;4.400;2023-10-09T10:08:48;20.30;99.90
23579;DHT22;11967;50.852;4.400;2023-10-09T10:11:47;20.30;99.90
23579;DHT22;11967;50.852;4.400;2023-10-09T10:14:20;20.30;99.90
23579;DHT22;11967;50.852;4.400;2023-10-09T10:20:06;20.20;99.90
23579;DHT22;11967;50.852;4.400;2023-10-09T10:23:14;20.20;99.90
23579;DHT22;11967;50.852;4.400;2023-10-09T10:25:43;20.30;99.90
23579;DHT22;11967;50.852;4.400;2023-10-09T10:30:54;20.30;99.90
23579;DHT22;11967;50.852;4.400;2023-10-09T10:33:21;20.30;99.90
23579;DHT22;11967;50.852;4.400;2023-10-09T10:35:48;20.40;99.90
23579;DHT22;11967;50.852;4.400;2023-10-09T10:38:24;20.40;99.90
23579;DHT22;11967;50.852;4.400;2023-10-09T10:40:50;20.40;99.90
23579;DHT22;11967;50.852;4.400;2023-10-09T10:43:24;20.40;99.90
23579;DHT22;11967;50.852;4.400;2023-10-09T10:46:08;20.40;99.90
23579;DHT22;11967;50.852;4.400;2023-10-09T10:48:41;20.30;99.90
23579;DHT22;11967;50.852;4.400;2023-10-09T10:51:15;20.40;99.90
23579;DHT22;11967;50.852;4.400;2023-10-09T10:53:54;20.30;99.90
23579;DHT22;11967;50.852;4.400;2023-10-09T10:56:24;20.40;99.90
23579;DHT22;11967;50.852;4.400;2023-10-09T10:59:00;20.50;99.90
23579;DHT22;11967;50.852;4.400;2023-10-09T11:01:35;20.50;99.90
23579;DHT22;11967;50.852;4.400;2023-10-09T11:04:25;20.50;99.90
23579;DHT22;11967;50.852;4.400;2023-10-09T11:07:05;20.60;99.90
23579;DHT22;11967;50.852;4.400;2023-10-09T11:15:09;20.70;99.90
23579;DHT22;11967;50.852;4.400;2023-10-09T11:18:05;20.70;99.90
23579;DHT22;11967;50.852;4.400;2023-10-09T11:20:56;20.80;99.90
23579;DHT22;11967;50.852;4.400;2023-10-09T11:23:29;20.90;99.90
23579;DHT22;11967;50.852;4.400;2023-10-09T11:26:05;21.00;99.90
23579;DHT22;11967;50.852;4.400;2023-10-09T11:29:12;21.10;99.90
23579;DHT22;11967;50.852;4.400;2023-10-09T11:31:42;21.10;99.90
23579;DHT22;11967;50.852;4.400;2023-10-09T11:34:23;21.10;99.90
23579;DHT22;11967;50.852;4.400;2023-10-09T11:37:15;21.10;99.90
23579;DHT22;11967;50.852;4.400;2023-10-09T11:40:07;21.10;99.90
23579;DHT22;11967;50.852;4.400;2023-10-09T11:42:49;21.00;99.90
23579;DHT22;11967;50.852;4.400;2023-10-09T11:45:26;21.10;99.90
23579;DHT22;11967;50.852;4.400;2023-10-09T11:48:16;21.00;99.90
23579;DHT22;11967;50.852;4.400;2023-10-09T11:50:52;21.10;99.90
23579;DHT22;11967;50.852;4.400;2023-10-09T11:53:19;21.10;99.90
23579;DHT22;11967;50.852;4.400;2023-10-09T11:55:48;21.20;99.90
23579;DHT22;11967;50.852;4.400;2023-10-09T11:58:15;21.30;99.90
23579;DHT22;11967;50.852;4.400;2023-10-09T12:00:53;21.20;99.90
23579;DHT22;11967;50.852;4.400;2023-10-09T12:03:29;21.10;99.90
23579;DHT22;11967;50.852;4.400;2023-10-09T12:06:02;21.20;99.90
23579;DHT22;11967;50.852;4.400;2023-10-09T12:08:33;21.20;99.90
23579;DHT22;11967;50.852;4.400;2023-10-09T12:10:59;21.30;99.90
23579;DHT22;11967;50.852;4.400;2023-10-09T12:13:28;21.30;99.90
23579;DHT22;11967;50.852;4.400;2023-10-09T12:15:54;21.30;99.90
23579;DHT22;11967;50.852;4.400;2023-10-09T12:18:21;21.30;99.90
23579;DHT22;11967;50.852;4.400;2023-10-09T12:20:48;21.40;99.90
23579;DHT22;11967;50.852;4.400;2023-10-09T12:23:21;21.40;99.90
23579;DHT22;11967;50.852;4.400;2023-10-09T12:25:51;21.40;99.90
23579;DHT22;11967;50.852;4.400;2023-10-09T12:28:17;21.40;99.90
23579;DHT22;11967;50.852;4.400;2023-10-09T12:30:46;21.50;99.90
23579;DHT22;11967;50.852;4.400;2023-10-09T12:33:16;21.60;99.90
23579;DHT22;11967;50.852;4.400;2023-10-09T12:35:42;21.50;99.90
23579;DHT22;11967;50.852;4.400;2023-10-09T12:38:11;21.60;99.90
23579;DHT22;11967;50.852;4.400;2023-10-09T12:40:38;21.70;99.90
23579;DHT22;11967;50.852;4.400;2023-10-09T12:43:06;21.70;99.90
23579;DHT22;11967;50.852;4.400;2023-10-09T12:45:41;21.70;99.90
23579;DHT22;11967;50.852;4.400;2023-10-09T12:48:07;21.70;99.90
23579;DHT22;11967;50.852;4.400;2023-10-09T12:50:35;21.60;99.90
23579;DHT22;11967;50.852;4.400;2023-10-09T12:53:08;21.60;99.90
23579;DHT22;11967;50.852;4.400;2023-10-09T12:55:36;21.70;99.90
23579;DHT22;11967;50.852;4.400;2023-10-09T12:58:06;21.80;99.90
23579;DHT22;11967;50.852;4.400;2023-10-09T13:00:34;21.70;99.90
23579;DHT22;11967;50.852;4.400;2023-10-09T13:03:07;21.60;99.90
23579;DHT22;11967;50.852;4.400;2023-10-09T13:05:50;21.70;99.90
23579;DHT22;11967;50.852;4.400;2023-10-09T13:08:27;21.70;99.90
23579;DHT22;11967;50.852;4.400;2023-10-09T13:11:06;21.80;99.90
23579;DHT22;11967;50.852;4.400;2023-10-09T13:13:39;21.80;99.90
23579;DHT22;11967;50.852;4.400;2023-10-09T13:16:19;21.80;99.90
23579;DHT22;11967;50.852;4.400;2023-10-09T13:18:56;21.80;99.90
23579;DHT22;11967;50.852;4.400;2023-10-09T13:21:24;21.80;99.90
23579;DHT22;11967;50.852;4.400;2023-10-09T13:23:52;21.80;99.90
23579;DHT22;11967;50.852;4.400;2023-10-09T13:26:21;21.70;99.90
23579;DHT22;11967;50.852;4.400;2023-10-09T13:28:58;21.70;99.90
23579;DHT22;11967;50.852;4.400;2023-10-09T13:31:25;21.70;99.90
23579;DHT22;11967;50.852;4.400;2023-10-09T13:33:52;21.70;99.90
23579;DHT22;11967;50.852;4.400;2023-10-09T13:36:24;21.60;99.90
23579;DHT22;11967;50.852;4.400;2023-10-09T13:38:57;21.70;99.90
23579;DHT22;11967;50.852;4.400;2023-10-09T13:41:23;21.80;99.90
23579;DHT22;11967;50.852;4.400;2023-10-09T13:43:55;21.80;99.90
23579;DHT22;11967;50.852;4.400;2023-10-09T13:46:22;21.90;99.90
23579;DHT22;11967;50.852;4.400;2023-10-09T13:48:49;21.90;99.90
23579;DHT22;11967;50.852;4.400;2023-10-09T13:51:15;21.90;99.90
23579;DHT22;11967;50.852;4.400;2023-10-09T13:53:44;21.90;99.90
23579;DHT22;11967;50.852;4.400;2023-10-09T13:56:12;21.90;99.90
23579;DHT22;11967;50.852;4.400;2023-10-09T13:58:43;22.00;99.90
23579;DHT22;11967;50.852;4.400;2023-10-09T14:01:09;22.00;99.90
23579;DHT22;11967;50.852;4.400;2023-10-09T14:03:35;22.00;99.90
23579;DHT22;11967;50.852;4.400;2023-10-09T14:06:04;21.90;99.90
23579;DHT22;11967;50.852;4.400;2023-10-09T14:08:39;21.90;99.90
23579;DHT22;11967;50.852;4.400;2023-10-09T14:11:09;21.80;99.90
23579;DHT22;11967;50.852;4.400;2023-10-09T14:13:41;21.90;99.90
23579;DHT22;11967;50.852;4.400;2023-10-09T14:16:06;21.90;99.90
23579;DHT22;11967;50.852;4.400;2023-10-09T14:18:33;21.90;99.90
23579;DHT22;11967;50.852;4.400;2023-10-09T14:21:02;21.90;99.90
23579;DHT22;11967;50.852;4.400;2023-10-09T14:23:35;22.00;99.90
23579;DHT22;11967;50.852;4.400;2023-10-09T14:26:01;22.10;99.90
23579;DHT22;11967;50.852;4.400;2023-10-09T14:28:31;22.10;99.90
23579;DHT22;11967;50.852;4.400;2023-10-09T14:30:57;22.10;99.90
23579;DHT22;11967;50.852;4.400;2023-10-09T14:33:26;22.20;99.90
23579;DHT22;11967;50.852;4.400;2023-10-09T14:35:54;22.20;99.90
23579;DHT22;11967;50.852;4.400;2023-10-09T14:38:20;22.30;99.90
23579;DHT22;11967;50.852;4.400;2023-10-09T14:40:52;22.30;99.90
23579;DHT22;11967;50.852;4.400;2023-10-09T14:43:23;22.20;99.90
23579;DHT22;11967;50.852;4.400;2023-10-09T14:45:54;22.20;99.90
23579;DHT22;11967;50.852;4.400;2023-10-09T14:48:20;22.20;99.90
23579;DHT22;11967;50.852;4.400;2023-10-09T14:50:52;22.20;99.90
23579;DHT22;11967;50.852;4.400;2023-10-09T14:53:23;22.20;99.90
23579;DHT22;11967;50.852;4.400;2023-10-09T14:55:59;22.20;99.90
23579;DHT22;11967;50.852;4.400;2023-10-09T14:58:29;22.20;99.90
23579;DHT22;11967;50.852;4.400;2023-10-09T15:00:56;22.10;99.90
23579;DHT22;11967;50.852;4.400;2023-10-09T15:03:22;22.10;99.90
23579;DHT22;11967;50.852;4.400;2023-10-09T15:05:48;22.10;99.90
23579;DHT22;11967;50.852;4.400;2023-10-09T15:08:15;22.00;99.90
23579;DHT22;11967;50.852;4.400;2023-10-09T15:10:51;22.10;99.90
23579;DHT22;11967;50.852;4.400;2023-10-09T15:13:22;22.10;99.90
23579;DHT22;11967;50.852;4.400;2023-10-09T15:15:54;22.00;99.90
23579;DHT22;11967;50.852;4.400;2023-10-09T15:18:21;22.10;99.90
23579;DHT22;11967;50.852;4.400;2023-10-09T15:20:48;22.20;99.90
23579;DHT22;11967;50.852;4.400;2023-10-09T15:23:14;22.20;99.90
23579;DHT22;11967;50.852;4.400;2023-10-09T15:25:40;22.20;99.90
23579;DHT22;11967;50.852;4.400;2023-10-09T15:28:08;22.20;99.90
23579;DHT22;11967;50.852;4.400;2023-10-09T15:30:35;22.10;99.90
23579;DHT22;11967;50.852;4.400;2023-10-09T15:33:06;22.10;99.90
23579;DHT22;11967;50.852;4.400;2023-10-09T15:35:33;22.10;99.90
23579;DHT22;11967;50.852;4.400;2023-10-09T15:38:02;22.20;99.90
23579;DHT22;11967;50.852;4.400;2023-10-09T15:40:31;22.10;99.90
23579;DHT22;11967;50.852;4.400;2023-10-09T15:43:01;22.10;99.90
23579;DHT22;11967;50.852;4.400;2023-10-09T15:45:27;22.10;99.90
23579;DHT22;11967;50.852;4.400;2023-10-09T15:47:57;22.10;99.90
23579;DHT22;11967;50.852;4.400;2023-10-09T15:50:25;22.00;99.90
23579;DHT22;11967;50.852;4.400;2023-10-09T15:52:54;22.00;99.90
23579;DHT22;11967;50.852;4.400;2023-10-09T15:55:21;22.10;99.90
23579;DHT22;11967;50.852;4.400;2023-10-09T15:57:50;22.10;99.90
23579;DHT22;11967;50.852;4.400;2023-10-09T16:00:21;22.10;99.90
23579;DHT22;11967;50.852;4.400;2023-10-09T16:02:50;22.10;99.90
23579;DHT22;11967;50.852;4.400;2023-10-09T16:05:19;22.10;99.90
23579;DHT22;11967;50.852;4.400;2023-10-09T16:07:51;22.20;99.90
23579;DHT22;11967;50.852;4.400;2023-10-09T16:10:19;22.20;99.90
23579;DHT22;11967;50.852;4.400;2023-10-09T16:12:46;22.20;99.90
23579;DHT22;11967;50.852;4.400;2023-10-09T16:15:12;22.20;99.90
23579;DHT22;11967;50.852;4.400;2023-10-09T16:17:40;22.20;99.90
23579;DHT22;11967;50.852;4.400;2023-10-09T16:20:08;22.20;99.90
23579;DHT22;11967;50.852;4.400;2023-10-09T16:22:42;22.20;99.90
23579;DHT22;11967;50.852;4.400;2023-10-09T16:25:11;22.20;99.90